Time;durP1;ratioP1;P1;durP2;ratioP2;P2;SDS_P1;SDS_P2;PMS_P1;PMS_P2;Temp;Humidity;BMP_temperature;BMP_pressure;BME280_temperature;BME280_humidity;BME280_pressure;Samples;Min_cycle;Max_cycle;Signal;HPM_P1;HPM_P2
2023/11/13 00:02:03;;;;;;;9.10;2.45;;;;;;;8.48;100.00;96242.38;4991194;28;20408;-69
2023/11/13 00:04:29;;;;;;;6.15;2.78;;;;;;;8.43;100.00;96250.84;4999472;28;20038;-68
2023/11/13 00:06:55;;;;;;;11.57;2.97;;;;;;;8.57;100.00;96255.75;4992974;28;20059;-69
2023/11/13 00:09:20;;;;;;;6.93;2.33;;;;;;;8.60;100.00;96246.84;4986520;28;20548;-68
2023/11/13 00:11:46;;;;;;;13.00;2.40;;;;;;;8.55;100.00;96241.69;4997646;28;20045;-68
2023/11/13 00:14:11;;;;;;;9.35;2.75;;;;;;;8.56;100.00;96248.72;4969268;28;20047;-70
2023/11/13 00:16:37;;;;;;;7.57;2.60;;;;;;;8.69;100.00;96239.19;5002703;28;20121;-68
2023/11/13 00:19:03;;;;;;;10.90;2.40;;;;;;;8.61;100.00;96243.75;5013879;28;20046;-69
2023/11/13 00:21:28;;;;;;;9.43;2.80;;;;;;;8.59;100.00;96256.97;4987044;28;20133;-69
2023/11/13 00:23:57;;;;;;;6.57;2.30;;;;;;;8.61;100.00;96251.94;4982707;28;20483;-69
2023/11/13 00:26:24;;;;;;;11.50;4.00;;;;;;;8.51;100.00;96262.69;4963706;28;20044;-69
2023/11/13 00:28:49;;;;;;;13.63;3.13;;;;;;;8.51;100.00;96262.69;4993639;28;20038;-68
2023/11/13 00:31:15;;;;;;;10.30;2.35;;;;;;;8.48;100.00;96256.00;4983620;28;20100;-69
2023/11/13 00:33:41;;;;;;;5.70;2.10;;;;;;;8.70;100.00;96240.00;4983193;28;20037;-68
2023/11/13 00:36:06;;;;;;;9.48;2.55;;;;;;;8.64;100.00;96244.94;4978549;28;20146;-68
2023/11/13 00:38:32;;;;;;;10.05;2.60;;;;;;;8.67;100.00;96229.78;4989320;28;20042;-68
2023/11/13 00:40:58;;;;;;;10.60;2.78;;;;;;;8.62;100.00;96230.88;4980247;28;20046;-67
2023/11/13 00:43:24;;;;;;;8.63;2.75;;;;;;;8.61;100.00;96238.28;4993440;28;20049;-69
2023/11/13 00:45:50;;;;;;;5.15;2.70;;;;;;;8.68;100.00;96236.81;4999451;28;20038;-68
2023/11/13 00:48:15;;;;;;;9.70;2.72;;;;;;;8.69;100.00;96247.38;4973173;28;20401;-68
2023/11/13 00:50:41;;;;;;;10.18;2.95;;;;;;;8.60;100.00;96252.31;4991759;28;20038;-69
2023/11/13 00:53:06;;;;;;;8.25;2.30;;;;;;;8.56;100.00;96244.06;4992010;28;20034;-69
2023/11/13 00:55:31;;;;;;;12.00;2.85;;;;;;;8.55;100.00;96231.56;4992363;28;20034;-67
2023/11/13 00:57:57;;;;;;;9.13;2.42;;;;;;;8.64;100.00;96231.31;5001773;28;20050;-68
2023/11/13 01:00:22;;;;;;;12.35;2.78;;;;;;;8.48;100.00;96236.91;4993460;28;20069;-68
2023/11/13 01:02:48;;;;;;;10.00;1.90;;;;;;;8.52;100.00;96248.66;4987736;28;20081;-68
2023/11/13 01:05:13;;;;;;;4.63;2.03;;;;;;;8.45;100.00;96242.31;4985930;28;20069;-68
2023/11/13 01:07:39;;;;;;;5.35;1.50;;;;;;;8.49;100.00;96237.69;4995410;28;20042;-70
2023/11/13 01:10:05;;;;;;;4.72;1.48;;;;;;;8.55;100.00;96233.50;4985244;28;20562;-70
2023/11/13 01:12:31;;;;;;;3.55;1.25;;;;;;;8.67;100.00;96240.72;4973977;28;20049;-70
2023/11/13 01:14:57;;;;;;;4.28;1.05;;;;;;;8.57;100.00;96225.72;4996625;28;20499;-69
2023/11/13 01:17:23;;;;;;;2.17;1.30;;;;;;;8.60;100.00;96230.47;5002722;28;20097;-68
2023/11/13 01:19:48;;;;;;;4.28;1.00;;;;;;;8.64;100.00;96216.88;4983168;28;20041;-68
2023/11/13 01:22:14;;;;;;;4.40;1.42;;;;;;;8.67;100.00;96218.88;4986620;28;20125;-68
2023/11/13 01:24:39;;;;;;;5.93;1.10;;;;;;;8.72;100.00;96218.56;4999583;28;20482;-68
2023/11/13 01:27:05;;;;;;;5.22;1.35;;;;;;;8.73;100.00;96210.03;4986850;28;20664;-70
2023/11/13 01:29:30;;;;;;;2.60;0.90;;;;;;;8.73;100.00;96220.13;4971958;28;20042;-69
2023/11/13 01:31:56;;;;;;;1.63;1.10;;;;;;;8.74;100.00;96219.78;5000229;28;20038;-69
2023/11/13 01:34:21;;;;;;;5.03;1.30;;;;;;;8.83;100.00;96221.47;4984523;28;20965;-69
2023/11/13 01:36:47;;;;;;;3.65;1.85;;;;;;;8.90;100.00;96224.31;4996050;28;20045;-69
2023/11/13 01:39:12;;;;;;;2.85;0.90;;;;;;;8.98;100.00;96210.41;4995144;28;20046;-69
2023/11/13 01:41:39;;;;;;;3.42;1.00;;;;;;;9.04;100.00;96212.78;4987645;28;20070;-69
2023/11/13 01:44:05;;;;;;;5.53;0.90;;;;;;;9.04;100.00;96212.78;4993763;28;20125;-68
2023/11/13 01:46:31;;;;;;;2.08;0.80;;;;;;;9.10;100.00;96214.06;4981205;28;20400;-69
2023/11/13 01:48:59;;;;;;;2.65;0.80;;;;;;;9.12;100.00;96219.94;4990208;28;20121;-68
2023/11/13 01:51:28;;;;;;;4.63;1.42;;;;;;;9.11;100.00;96224.63;4996727;28;20050;-68
2023/11/13 01:53:55;;;;;;;3.97;1.00;;;;;;;9.17;100.00;96214.16;4991949;28;20066;-68
2023/11/13 01:56:23;;;;;;;4.78;1.15;;;;;;;9.19;100.00;96228.25;4991421;28;20116;-68
2023/11/13 01:58:49;;;;;;;5.95;1.00;;;;;;;9.25;100.00;96226.75;4973693;28;20671;-68
2023/11/13 02:01:14;;;;;;;3.53;0.77;;;;;;;9.25;100.00;96232.22;4980581;28;20142;-68
2023/11/13 02:03:40;;;;;;;3.00;0.98;;;;;;;9.26;100.00;96227.56;4991875;28;20657;-69
2023/11/13 02:06:06;;;;;;;2.83;0.90;;;;;;;9.35;100.00;96231.59;4978296;28;20038;-69
2023/11/13 02:08:32;;;;;;;4.80;1.08;;;;;;;9.36;100.00;96237.84;4966331;28;20078;-69
2023/11/13 02:11:00;;;;;;;4.57;0.90;;;;;;;9.51;100.00;96249.75;5003512;23;20088;-69
2023/11/13 02:13:29;;;;;;;2.75;0.80;;;;;;;9.47;100.00;96240.72;4975951;28;20061;-70
2023/11/13 02:15:55;;;;;;;4.57;0.90;;;;;;;9.44;100.00;96244.97;5000396;28;20605;-69
2023/11/13 02:18:20;;;;;;;3.67;0.90;;;;;;;9.38;100.00;96258.19;4985825;28;20054;-69
2023/11/13 02:20:45;;;;;;;1.83;0.70;;;;;;;9.51;100.00;96239.59;4990017;28;20046;-69
2023/11/13 02:23:15;;;;;;;2.70;0.85;;;;;;;9.53;100.00;96214.63;4992682;28;20053;-68
2023/11/13 02:25:49;;;;;;;5.97;0.80;;;;;;;9.55;100.00;96228.72;4995874;28;20488;-68
2023/11/13 02:28:14;;;;;;;5.22;0.88;;;;;;;9.56;100.00;96227.53;4988149;28;20085;-69
2023/11/13 02:30:40;;;;;;;1.77;0.70;;;;;;;9.62;100.00;96211.63;5003900;28;20046;-68
2023/11/13 02:33:05;;;;;;;2.20;0.93;;;;;;;9.62;100.00;96215.13;4994272;28;20104;-69
2023/11/13 02:35:31;;;;;;;3.47;1.05;;;;;;;9.71;100.00;96212.13;4998982;28;20048;-68
2023/11/13 02:37:56;;;;;;;6.43;0.90;;;;;;;9.70;100.00;96200.38;5002611;28;20050;-68
2023/11/13 02:40:22;;;;;;;3.83;0.80;;;;;;;9.77;100.00;96203.19;4990846;28;20525;-68
2023/11/13 02:42:48;;;;;;;2.03;0.90;;;;;;;9.81;100.00;96197.75;5000320;28;20060;-68
2023/11/13 02:45:13;;;;;;;2.42;0.95;;;;;;;9.83;100.00;96192.72;4987968;28;20081;-69
2023/11/13 02:47:39;;;;;;;4.85;1.02;;;;;;;9.79;100.00;96194.63;4992039;28;20052;-69
2023/11/13 02:50:06;;;;;;;4.63;1.05;;;;;;;9.80;100.00;96195.44;4994164;28;20042;-71
2023/11/13 02:52:32;;;;;;;5.13;1.27;;;;;;;9.75;100.00;96202.78;5000848;28;20128;-69
2023/11/13 02:54:58;;;;;;;3.95;1.00;;;;;;;9.78;100.00;96198.53;5001192;28;20125;-69
2023/11/13 02:57:23;;;;;;;3.42;1.05;;;;;;;9.88;100.00;96192.38;4993796;28;20085;-69
2023/11/13 02:59:48;;;;;;;5.60;1.00;;;;;;;9.88;100.00;96205.28;4996477;28;20046;-69
2023/11/13 03:02:14;;;;;;;8.48;3.17;;;;;;;9.95;100.00;96194.41;4987056;28;20070;-70
2023/11/13 03:04:40;;;;;;;4.63;1.25;;;;;;;10.03;100.00;96198.81;4984208;28;20073;-69
2023/11/13 03:07:06;;;;;;;6.55;1.30;;;;;;;10.04;100.00;96200.34;4985119;28;20065;-69
2023/11/13 03:09:32;;;;;;;7.53;1.25;;;;;;;10.03;100.00;96196.06;4998840;28;20108;-68
2023/11/13 03:11:57;;;;;;;5.60;1.08;;;;;;;10.02;100.00;96204.66;5000739;28;20052;-69
2023/11/13 03:14:23;;;;;;;8.73;1.40;;;;;;;10.07;100.00;96204.31;4982659;28;20298;-69
2023/11/13 03:16:48;;;;;;;6.68;1.23;;;;;;;10.02;100.00;96202.69;4995387;28;20076;-67
2023/11/13 03:19:13;;;;;;;5.97;0.88;;;;;;;10.06;100.00;96202.72;4994614;28;20111;-68
2023/11/13 03:21:39;;;;;;;6.20;1.50;;;;;;;10.06;100.00;96195.28;4994459;28;20137;-69
2023/11/13 03:24:05;;;;;;;7.18;1.13;;;;;;;10.03;100.00;96198.81;4985037;28;20062;-69
2023/11/13 03:26:30;;;;;;;6.72;1.23;;;;;;;10.06;100.00;96194.50;4998889;28;20046;-69
2023/11/13 03:28:56;;;;;;;8.45;1.17;;;;;;;10.07;100.00;96179.69;5000429;28;20570;-69
2023/11/13 03:31:22;;;;;;;7.97;1.60;;;;;;;10.13;100.00;96195.38;4995509;28;20110;-68
2023/11/13 03:33:47;;;;;;;5.15;1.48;;;;;;;10.09;100.00;96178.13;4996288;28;20053;-68
2023/11/13 03:36:13;;;;;;;5.55;1.23;;;;;;;10.24;100.00;96172.78;4991372;28;20050;-70
2023/11/13 03:38:39;;;;;;;3.40;1.13;;;;;;;10.28;100.00;96179.09;4973662;28;20038;-69
2023/11/13 03:41:05;;;;;;;5.50;1.30;;;;;;;10.28;100.00;96179.09;4990227;28;20049;-70
2023/11/13 03:43:32;;;;;;;8.45;1.35;;;;;;;10.31;100.00;96190.09;4980902;28;20038;-72
2023/11/13 03:45:58;;;;;;;4.85;1.30;;;;;;;10.37;100.00;96189.75;4997400;28;20046;-69
2023/11/13 03:48:23;;;;;;;7.00;1.10;;;;;;;10.44;100.00;96187.06;4993118;28;20060;-70
2023/11/13 03:50:48;;;;;;;5.18;1.17;;;;;;;10.44;100.00;96179.69;4998626;28;20042;-69
2023/11/13 03:53:14;;;;;;;6.82;1.95;;;;;;;10.43;100.00;96182.78;4994559;28;20161;-67
2023/11/13 03:55:39;;;;;;;6.63;1.30;;;;;;;10.40;100.00;96200.72;5001286;28;20132;-69
2023/11/13 03:58:05;;;;;;;5.18;1.20;;;;;;;10.44;100.00;96204.31;5008577;28;20396;-68
2023/11/13 04:00:31;;;;;;;5.70;1.50;;;;;;;10.43;100.00;96202.72;5008280;28;20065;-67
2023/11/13 04:02:56;;;;;;;5.78;1.05;;;;;;;10.42;100.00;96216.78;5010639;28;20041;-67
2023/11/13 04:05:22;;;;;;;4.85;1.25;;;;;;;10.40;100.00;96222.63;5003127;28;20057;-67
2023/11/13 04:07:47;;;;;;;6.47;1.10;;;;;;;10.39;100.00;96218.34;5013418;28;20064;-70
2023/11/13 04:10:14;;;;;;;9.25;1.50;;;;;;;10.38;100.00;96232.41;5027959;28;20083;-68
2023/11/13 04:12:41;;;;;;;8.65;1.40;;;;;;;10.34;100.00;96226.91;5011998;28;20076;-68
2023/11/13 04:15:08;;;;;;;8.38;1.50;;;;;;;10.31;100.00;96233.88;5012496;28;20080;-67
2023/11/13 04:17:35;;;;;;;5.53;1.17;;;;;;;10.38;100.00;96237.88;5018258;28;20057;-69
2023/11/13 04:20:01;;;;;;;4.55;1.25;;;;;;;10.33;100.00;96231.59;5019579;28;20045;-69
2023/11/13 04:22:26;;;;;;;5.43;1.30;;;;;;;10.38;100.00;96235.13;5005636;28;20046;-69
2023/11/13 04:24:53;;;;;;;9.75;1.60;;;;;;;10.42;100.00;96233.22;5018732;28;20073;-68
2023/11/13 04:27:18;;;;;;;3.50;0.95;;;;;;;10.49;100.00;96238.75;5012005;28;20049;-71
2023/11/13 04:29:44;;;;;;;6.95;1.42;;;;;;;10.55;100.00;96228.25;5011056;28;20057;-71
2023/11/13 04:32:10;;;;;;;4.55;1.23;;;;;;;10.48;100.00;96228.97;4993804;28;20076;-68
2023/11/13 04:34:35;;;;;;;4.30;1.00;;;;;;;10.46;100.00;96232.09;5019056;28;20075;-67
2023/11/13 04:37:02;;;;;;;5.88;1.10;;;;;;;10.42;100.00;96222.25;5010852;28;20048;-70
2023/11/13 04:39:28;;;;;;;9.48;1.40;;;;;;;10.36;100.00;96219.09;5015704;28;20496;-68
2023/11/13 04:41:53;;;;;;;13.75;4.97;;;;;;;10.36;100.00;96226.53;5008060;28;20064;-69
2023/11/13 04:44:19;;;;;;;10.02;1.50;;;;;;;10.33;100.00;96226.13;4997375;28;20587;-69
2023/11/13 04:46:46;;;;;;;10.30;2.42;;;;;;;10.31;100.00;96211.22;5012308;28;20089;-68
2023/11/13 04:49:11;;;;;;;6.63;1.33;;;;;;;10.30;100.00;96218.63;5008328;28;20122;-69
2023/11/13 04:51:40;;;;;;;4.18;1.02;;;;;;;10.25;100.00;96223.66;5015136;28;20062;-69
2023/11/13 04:54:06;;;;;;;4.03;1.05;;;;;;;10.21;100.00;96234.56;5002546;28;20443;-70
2023/11/13 04:56:31;;;;;;;5.10;0.90;;;;;;;10.21;100.00;96231.81;5016453;28;20056;-71
2023/11/13 04:58:57;;;;;;;4.97;0.85;;;;;;;10.24;100.00;96250.22;5009990;28;20049;-70
2023/11/13 05:01:23;;;;;;;8.93;1.55;;;;;;;10.17;100.00;96246.63;5007064;28;20550;-69
2023/11/13 05:03:49;;;;;;;5.20;1.42;;;;;;;10.15;100.00;96236.03;5009678;28;20073;-70
2023/11/13 05:06:15;;;;;;;6.63;1.20;;;;;;;10.12;100.00;96262.22;5013493;28;20418;-71
2023/11/13 05:08:44;;;;;;;3.97;1.05;;;;;;;10.12;100.00;96264.97;5018086;28;20048;-70
2023/11/13 05:11:26;;;;;;;2.90;1.10;;;;;;;10.12;100.00;96275.91;4994192;28;20134;-69
2023/11/13 05:13:52;;;;;;;5.03;1.00;;;;;;;10.03;100.00;96282.81;5012178;28;20045;-69
2023/11/13 05:16:23;;;;;;;5.30;1.10;;;;;;;10.01;100.00;96290.59;5009173;28;20060;-68
2023/11/13 05:18:48;;;;;;;4.78;1.00;;;;;;;9.95;100.00;96284.69;5019797;28;20041;-69
2023/11/13 05:21:16;;;;;;;5.50;1.20;;;;;;;9.84;100.00;96295.50;5009011;28;20411;-69
2023/11/13 05:23:41;;;;;;;5.97;1.58;;;;;;;9.76;100.00;96302.81;5018868;28;20570;-70
2023/11/13 05:26:07;;;;;;;4.70;1.15;;;;;;;9.68;100.00;96297.63;5012539;28;20069;-69
2023/11/13 05:28:33;;;;;;;6.80;1.40;;;;;;;9.62;100.00;96299.13;4997310;28;20092;-69
2023/11/13 05:30:58;;;;;;;8.73;1.88;;;;;;;9.60;100.00;96290.47;5020885;28;20726;-69
2023/11/13 05:33:23;;;;;;;7.35;1.20;;;;;;;9.50;100.00;96298.16;5011982;28;20524;-69
2023/11/13 05:35:49;;;;;;;4.85;1.20;;;;;;;9.51;100.00;96296.25;5023499;28;20045;-68
2023/11/13 05:38:16;;;;;;;5.88;1.10;;;;;;;9.43;100.00;96302.75;5016075;28;20113;-68
2023/11/13 05:40:43;;;;;;;4.53;1.23;;;;;;;9.43;100.00;96302.75;5023831;28;20416;-68
2023/11/13 05:43:09;;;;;;;5.65;1.27;;;;;;;9.38;100.00;96312.03;5015606;28;20045;-70
2023/11/13 05:45:35;;;;;;;6.57;1.27;;;;;;;9.38;100.00;96309.31;5024613;28;20053;-69
2023/11/13 05:48:02;;;;;;;7.22;1.30;;;;;;;9.38;100.00;96301.91;5020146;28;20045;-68
2023/11/13 05:50:27;;;;;;;6.43;1.70;;;;;;;9.40;100.00;96309.75;5018548;28;20056;-71
2023/11/13 05:52:53;;;;;;;2.78;1.40;;;;;;;9.34;100.00;96301.06;5021172;28;20042;-69
2023/11/13 05:55:18;;;;;;;4.47;1.27;;;;;;;9.33;100.00;96310.44;5020664;28;20045;-69
2023/11/13 05:57:45;;;;;;;5.13;1.30;;;;;;;9.30;100.00;96304.91;5023056;28;20207;-71
2023/11/13 06:00:11;;;;;;;4.88;1.30;;;;;;;9.27;100.00;96306.41;5016049;28;20044;-68
2023/11/13 06:02:37;;;;;;;8.18;1.65;;;;;;;9.32;100.00;96305.31;5020908;28;20083;-71
2023/11/13 06:05:04;;;;;;;7.22;1.38;;;;;;;9.33;100.00;96309.66;5021127;28;20044;-74
2023/11/13 06:07:30;;;;;;;5.07;1.35;;;;;;;9.23;100.00;96313.00;5017911;28;20049;-69
2023/11/13 06:09:56;;;;;;;8.77;1.55;;;;;;;9.18;100.00;96314.09;5010461;28;20041;-69
2023/11/13 06:12:25;;;;;;;5.50;1.33;;;;;;;9.15;100.00;96318.34;4998171;28;20119;-71
2023/11/13 06:14:51;;;;;;;8.65;2.00;;;;;;;9.14;100.00;96324.97;5015668;28;20049;-72
2023/11/13 06:17:17;;;;;;;8.52;1.90;;;;;;;9.15;100.00;96320.31;5015082;28;20042;-71
2023/11/13 06:19:43;;;;;;;4.40;1.90;;;;;;;9.12;100.00;96321.03;5017819;28;20098;-70
2023/11/13 06:22:09;;;;;;;13.43;2.92;;;;;;;9.12;100.00;96331.97;5007056;28;20042;-75
2023/11/13 06:24:37;;;;;;;6.57;1.92;;;;;;;9.08;100.00;96329.16;5018815;28;20034;-69
2023/11/13 06:27:04;;;;;;;7.75;1.90;;;;;;;9.09;100.00;96328.03;5015274;28;20052;-75
2023/11/13 06:29:30;;;;;;;6.10;2.08;;;;;;;9.08;100.00;96326.44;5015127;28;20880;-69
2023/11/13 06:31:56;;;;;;;7.85;1.95;;;;;;;9.15;100.00;96328.50;5019950;28;20045;-70
2023/11/13 06:34:21;;;;;;;12.48;2.70;;;;;;;9.16;100.00;96327.34;5013921;28;20120;-71
2023/11/13 06:36:46;;;;;;;8.95;1.92;;;;;;;9.29;100.00;96322.44;5020219;28;20045;-71
2023/11/13 06:39:12;;;;;;;7.32;2.85;;;;;;;9.33;100.00;96324.09;5017273;28;20052;-71
2023/11/13 06:41:37;;;;;;;6.70;2.22;;;;;;;9.29;100.00;96320.53;5019231;28;20038;-71
2023/11/13 06:44:07;;;;;;;7.35;2.00;;;;;;;9.35;100.00;96318.25;5019162;28;20041;-74
2023/11/13 06:46:33;;;;;;;;;;;;;;;9.19;100.00;96323.88;5020523;28;20073;-70
2023/11/13 06:48:58;;;;;;;9.32;2.03;;;;;;;9.16;100.00;96330.88;5019703;28;20295;-70
2023/11/13 06:51:24;;;;;;;4.50;1.98;;;;;;;9.27;100.00;96322.03;5014366;28;20618;-71
2023/11/13 06:53:49;;;;;;;7.95;1.60;;;;;;;9.37;100.00;96324.16;5020639;28;20069;-69
2023/11/13 06:56:15;;;;;;;7.03;1.77;;;;;;;9.37;100.00;96321.41;5015570;28;20033;-70
2023/11/13 06:58:40;;;;;;;6.40;1.77;;;;;;;9.49;100.00;96323.94;5021196;28;20069;-72
2023/11/13 07:01:07;;;;;;;6.32;1.90;;;;;;;9.53;100.00;96324.78;5016198;28;20442;-68
2023/11/13 07:03:33;;;;;;;6.07;1.85;;;;;;;9.50;100.00;96327.47;5021009;28;20056;-71
2023/11/13 07:05:58;;;;;;;5.50;1.92;;;;;;;9.42;100.00;96326.56;5020237;28;20443;-71
2023/11/13 07:08:25;;;;;;;9.68;2.00;;;;;;;9.38;100.00;96331.16;5014851;28;20128;-70
2023/11/13 07:10:51;;;;;;;5.50;1.92;;;;;;;9.44;100.00;96337.91;5002412;28;20040;-71
2023/11/13 07:13:18;;;;;;;9.05;2.50;;;;;;;9.49;100.00;96336.81;5009667;28;20199;-72
2023/11/13 07:15:44;;;;;;;8.55;2.50;;;;;;;9.51;100.00;96335.28;5021062;28;20539;-69
2023/11/13 07:18:09;;;;;;;22.25;10.98;;;;;;;9.46;100.00;96334.81;5019188;28;20187;-71
2023/11/13 07:20:35;;;;;;;6.03;2.10;;;;;;;9.49;100.00;96325.88;5021697;28;20132;-71
2023/11/13 07:23:02;;;;;;;11.20;1.92;;;;;;;9.41;100.00;96329.66;5022857;28;20543;-73
2023/11/13 07:25:29;;;;;;;4.07;1.38;;;;;;;9.37;100.00;96322.19;5018691;28;20057;-70
2023/11/13 07:27:56;;;;;;;4.30;1.40;;;;;;;9.32;100.00;96333.44;5020986;28;20056;-69
2023/11/13 07:30:22;;;;;;;7.10;2.00;;;;;;;9.34;100.00;96335.81;5016204;28;20080;-69
2023/11/13 07:32:48;;;;;;;5.18;1.40;;;;;;;9.29;100.00;96333.38;5020803;28;20052;-71
2023/11/13 07:35:13;;;;;;;5.38;1.50;;;;;;;9.29;100.00;96336.91;5015927;28;20045;-71
2023/11/13 07:37:39;;;;;;;5.20;1.40;;;;;;;9.27;100.00;96338.44;5011097;28;20133;-70
2023/11/13 07:40:09;;;;;;;5.93;1.40;;;;;;;9.27;100.00;96343.88;5011427;28;20052;-75
2023/11/13 07:42:36;;;;;;;3.35;1.50;;;;;;;9.27;100.00;96346.63;5019295;28;20511;-71
2023/11/13 07:45:05;;;;;;;3.97;1.25;;;;;;;9.28;100.00;96350.94;5019387;28;20054;-74
2023/11/13 07:47:30;;;;;;;4.47;1.48;;;;;;;9.23;100.00;96356.72;5019977;28;20053;-70
2023/11/13 07:49:57;;;;;;;5.07;1.58;;;;;;;9.03;100.00;96370.44;5020653;28;20046;-70
2023/11/13 07:52:23;;;;;;;3.83;1.40;;;;;;;8.84;100.00;96367.75;5014475;28;20394;-70
2023/11/13 07:54:48;;;;;;;6.57;1.90;;;;;;;8.73;100.00;96364.84;5021334;28;20041;-70
2023/11/13 07:57:14;;;;;;;4.10;1.33;;;;;;;8.68;100.00;96384.25;5016259;28;20529;-71
2023/11/13 07:59:41;;;;;;;7.57;1.75;;;;;;;8.67;100.00;96374.50;5019466;28;20511;-71
2023/11/13 08:02:09;;;;;;;5.15;1.65;;;;;;;8.72;100.00;96376.94;5000227;28;20042;-73
2023/11/13 08:04:35;;;;;;;5.43;1.95;;;;;;;8.76;100.00;96386.75;5019618;28;20424;-71
2023/11/13 08:07:01;;;;;;;3.53;1.52;;;;;;;8.79;100.00;96396.97;5020188;28;20407;-69
2023/11/13 08:09:27;;;;;;;2.88;1.38;;;;;;;8.85;100.00;96385.75;5015136;28;20056;-70
2023/11/13 08:11:52;;;;;;;3.25;1.55;;;;;;;8.95;100.00;96372.28;5019975;28;20047;-72
2023/11/13 08:14:18;;;;;;;2.33;1.38;;;;;;;8.98;100.00;96377.03;5012068;28;20037;-70
2023/11/13 08:16:44;;;;;;;3.60;1.60;;;;;;;9.06;100.00;96367.00;5012746;28;20052;-70
2023/11/13 08:19:09;;;;;;;6.63;1.42;;;;;;;9.01;100.00;96375.50;5014515;28;20044;-69
2023/11/13 08:21:35;;;;;;;6.93;1.45;;;;;;;8.94;100.00;96378.88;5019736;28;20046;-69
2023/11/13 08:24:01;;;;;;;5.32;1.17;;;;;;;9.06;100.00;96368.94;5020262;28;20572;-71
2023/11/13 08:26:32;;;;;;;2.20;1.13;;;;;;;9.21;100.00;96359.03;5014418;28;20056;-71
2023/11/13 08:28:58;;;;;;;5.03;1.55;;;;;;;9.33;100.00;96361.56;5019986;28;20140;-69
2023/11/13 08:31:26;;;;;;;3.15;1.40;;;;;;;9.38;100.00;96350.31;5013850;28;20698;-71
2023/11/13 08:33:52;;;;;;;2.17;1.10;;;;;;;9.41;100.00;96352.31;5019611;28;20376;-70
2023/11/13 08:36:21;;;;;;;4.20;1.50;;;;;;;9.37;100.00;96360.47;5014876;28;20049;-70
2023/11/13 08:38:47;;;;;;;2.63;1.70;;;;;;;9.42;100.00;96364.84;5011989;28;20456;-71
2023/11/13 08:41:13;;;;;;;4.78;1.88;;;;;;;9.57;100.00;96358.41;5015671;28;20047;-70
2023/11/13 08:43:39;;;;;;;4.68;2.10;;;;;;;9.67;100.00;96357.00;5020408;28;20059;-70
2023/11/13 08:46:04;;;;;;;2.88;1.63;;;;;;;9.71;100.00;96363.31;5014651;28;20041;-72
2023/11/13 08:48:30;;;;;;;3.85;1.83;;;;;;;9.71;100.00;96368.00;5011151;28;20042;-69
2023/11/13 08:50:59;;;;;;;7.50;2.28;;;;;;;9.72;100.00;96386.78;5019136;28;20033;-70
2023/11/13 08:53:27;;;;;;;5.15;2.08;;;;;;;9.82;100.00;96387.28;5013945;28;20595;-71
2023/11/13 08:55:53;;;;;;;6.00;1.52;;;;;;;9.89;100.00;96370.97;5018375;28;20076;-70
2023/11/13 08:58:18;;;;;;;5.15;1.75;;;;;;;9.94;100.00;96376.13;5015191;28;20034;-70
2023/11/13 09:00:44;;;;;;;5.45;2.30;;;;;;;10.05;100.00;96379.00;5015192;28;20037;-71
2023/11/13 09:03:11;;;;;;;10.07;4.55;;;;;;;10.13;100.00;96369.72;5014009;28;20112;-70
2023/11/13 09:05:37;;;;;;;6.18;2.90;;;;;;;10.20;100.00;96374.50;5018961;28;20396;-70
2023/11/13 09:08:03;;;;;;;3.53;1.60;;;;;;;10.36;100.00;96364.16;5018013;28;20537;-72
2023/11/13 09:10:29;;;;;;;7.78;2.97;;;;;;;10.55;100.00;96352.25;5017247;28;20047;-70
2023/11/13 09:12:59;;;;;;;4.82;2.40;;;;;;;10.52;100.00;96362.00;5011974;28;20152;-69
2023/11/13 09:15:29;;;;;;;6.05;2.50;;;;;;;10.55;100.00;96362.41;5013544;28;20045;-69
2023/11/13 09:17:58;;;;;;;8.18;2.30;;;;;;;10.57;100.00;96357.34;5018163;28;20507;-69
2023/11/13 09:20:24;;;;;;;3.53;2.05;;;;;;;10.56;100.00;96364.00;5004456;28;20481;-71
2023/11/13 09:22:51;;;;;;;4.05;1.40;;;;;;;10.65;100.00;96365.28;5020648;28;20048;-72
2023/11/13 09:25:19;;;;;;;2.72;1.40;;;;;;;10.77;100.00;96363.44;5016367;28;20103;-72
2023/11/13 09:27:46;;;;;;;3.13;1.48;;;;;;;10.76;100.00;96361.88;5018639;28;20038;-72
2023/11/13 09:30:14;;;;;;;4.25;2.72;;;;;;;10.66;100.00;96358.66;5014917;28;20064;-70
2023/11/13 09:32:41;;;;;;;4.97;2.28;;;;;;;10.62;100.00;96360.53;5020185;28;20044;-71
2023/11/13 09:35:14;;;;;;;5.45;2.85;;;;;;;10.60;100.00;96354.66;5013751;28;20041;-71
2023/11/13 09:37:42;;;;;;;4.75;2.60;;;;;;;10.62;100.00;96355.06;5019877;28;20048;-71
2023/11/13 09:40:13;;;;;;;5.45;2.50;;;;;;;10.71;100.00;96354.75;5013428;28;20124;-69
2023/11/13 09:42:42;;;;;;;4.22;2.28;;;;;;;10.74;100.00;96355.97;5010323;28;20046;-70
2023/11/13 09:45:08;;;;;;;5.63;3.30;;;;;;;10.76;100.00;96346.22;5013894;28;20049;-71
2023/11/13 09:47:38;;;;;;;4.30;2.50;;;;;;;10.79;100.00;96353.69;5009505;28;20045;-71
2023/11/13 09:50:15;;;;;;;5.68;2.95;;;;;;;10.89;100.00;96358.50;5005882;28;20499;-72
2023/11/13 09:52:45;;;;;;;3.60;2.10;;;;;;;10.90;100.00;96348.31;5009194;28;20046;-69
2023/11/13 09:55:13;;;;;;;4.03;1.95;;;;;;;10.87;100.00;96351.78;5013600;28;20033;-71
2023/11/13 09:57:41;;;;;;;8.57;2.72;;;;;;;10.89;100.00;96350.28;5010046;28;20049;-70
2023/11/13 10:00:16;;;;;;;6.38;2.08;;;;;;;11.00;100.00;96346.81;5008642;28;20042;-70
2023/11/13 10:02:46;;;;;;;3.83;1.60;;;;;;;10.96;100.00;96346.78;5008408;28;20042;-71
2023/11/13 10:05:15;;;;;;;3.58;1.38;;;;;;;11.13;100.00;96337.16;5008481;28;20491;-72
2023/11/13 10:07:48;;;;;;;4.55;1.88;;;;;;;11.20;100.00;96328.19;5011199;28;20164;-69
2023/11/13 10:10:23;;;;;;;6.88;1.70;;;;;;;11.25;100.00;96317.69;5014293;28;20148;-70
2023/11/13 10:12:50;;;;;;;4.70;1.85;;;;;;;11.20;100.00;96301.59;5017922;28;20052;-70
2023/11/13 10:15:22;;;;;;;8.25;4.75;;;;;;;11.31;100.00;96304.41;4997580;28;20125;-71
2023/11/13 10:17:48;;;;;;;22.58;14.80;;;;;;;11.37;100.00;96304.84;5021463;28;20079;-70
2023/11/13 10:20:18;;;;;;;13.70;5.47;;;;;;;11.44;100.00;96302.13;5016428;28;20041;-71
2023/11/13 10:22:45;;;;;;;11.88;4.70;;;;;;;11.42;100.00;96293.50;5021481;28;20049;-70
2023/11/13 10:25:11;;;;;;;10.32;3.03;;;;;;;11.52;100.00;96289.25;5016719;28;20064;-70
2023/11/13 10:27:44;;;;;;;4.20;1.52;;;;;;;11.70;100.00;96292.88;5021811;28;20096;-71
2023/11/13 10:30:10;;;;;;;6.43;3.20;;;;;;;11.60;100.00;96280.69;5016673;28;20075;-71
2023/11/13 10:32:36;;;;;;;4.90;2.60;;;;;;;11.51;100.00;96285.72;5020266;28;20136;-71
2023/11/13 10:35:04;;;;;;;6.43;2.38;;;;;;;11.46;100.00;96283.34;5021546;28;20505;-71
2023/11/13 10:37:31;;;;;;;7.65;3.42;;;;;;;11.43;100.00;96281.34;5022321;28;20095;-71
2023/11/13 10:39:57;;;;;;;4.38;2.22;;;;;;;11.40;100.00;96284.88;5018207;28;20151;-70
2023/11/13 10:42:25;;;;;;;3.70;2.05;;;;;;;11.41;100.00;96284.47;5013785;28;20178;-70
2023/11/13 10:45:01;;;;;;;8.30;1.60;;;;;;;11.44;100.00;96285.69;5013708;28;20128;-70
2023/11/13 10:47:32;;;;;;;5.22;1.33;;;;;;;11.42;100.00;96282.53;5017342;28;20376;-71
2023/11/13 10:49:59;;;;;;;4.70;1.73;;;;;;;11.38;100.00;96296.22;5021622;28;20041;-70
2023/11/13 10:52:27;;;;;;;4.75;1.38;;;;;;;11.50;100.00;96286.88;5016271;28;20416;-73
2023/11/13 10:55:04;;;;;;;5.97;1.80;;;;;;;11.41;100.00;96270.00;5021966;28;20136;-71
2023/11/13 10:57:29;;;;;;;5.75;1.85;;;;;;;11.34;100.00;96265.25;5001310;28;20041;-68
2023/11/13 10:59:55;;;;;;;4.63;2.30;;;;;;;11.37;100.00;96267.22;5013623;28;20041;-72
2023/11/13 11:02:32;;;;;;;5.30;1.80;;;;;;;11.36;100.00;96264.84;5016656;28;20033;-72
2023/11/13 11:05:11;;;;;;;4.18;1.83;;;;;;;11.40;100.00;96257.47;5022559;28;20041;-71
2023/11/13 11:07:38;;;;;;;5.57;1.65;;;;;;;11.49;100.00;96241.44;5021123;28;20050;-71
2023/11/13 11:10:05;;;;;;;6.10;1.77;;;;;;;11.48;100.00;96237.91;5014918;28;20045;-76
2023/11/13 11:12:46;;;;;;;6.70;1.77;;;;;;;11.37;100.00;96236.28;5020218;28;20103;-70
2023/11/13 11:15:34;;;;;;;5.78;1.70;;;;;;;11.35;100.00;96246.84;5017147;28;20075;-68
2023/11/13 11:18:24;;;;;;;6.38;1.50;;;;;;;11.31;100.00;96252.31;5014135;28;20037;-73
2023/11/13 11:21:04;;;;;;;10.35;3.83;;;;;;;11.36;100.00;96249.22;5012072;28;20500;-70
2023/11/13 11:23:42;;;;;;;12.73;4.80;;;;;;;11.42;100.00;96257.88;5019140;28;20049;-71
2023/11/13 11:26:07;;;;;;;11.60;3.85;;;;;;;11.39;100.00;96253.13;5014794;28;20128;-72
2023/11/13 11:28:44;;;;;;;5.15;1.80;;;;;;;11.46;100.00;96250.44;5021347;28;20407;-70